DAL1215 KMSP-KBIS
Flight info
| Callsign | DAL1215 |
|---|---|
| Flight time | 1h 0m |
| Altitude | 38000 |
| Route | KMSP KBREW2 FAR DCT BIS DCT KBIS |
| Aircraft | A320/M-V/N |
Departure
| Time | 2026-04-19 04:09 |
|---|---|
| Airport | Minneapolis–Saint Paul International Airport / Wold–Chamberlain Field (KMSP) |
Arrival
| Time | 2026-04-19 05:09 |
|---|---|
| Airport | Bismarck Municipal Airport (KBIS) |
| Time | Latitude | Longitude | Altitude | Speed | Heading |
|---|---|---|---|---|---|
| 2026-04-19 03:49 | 44.88088 | -93.21047 | 837 ft | 0 kts | 25° |
| 2026-04-19 04:01 | 44.88085 | -93.21049 | 827 ft | 3 kts | 25° |
| 2026-04-19 04:02 | 44.88061 | -93.21064 | 831 ft | 3 kts | 26° |
| 2026-04-19 04:02 | 44.88037 | -93.21083 | 827 ft | 3 kts | 36° |
| 2026-04-19 04:02 | 44.88018 | -93.21108 | 832 ft | 3 kts | 57° |
| 2026-04-19 04:02 | 44.88009 | -93.21141 | 829 ft | 3 kts | 104° |
| 2026-04-19 04:03 | 44.88011 | -93.21150 | 830 ft | 0 kts | 114° |
| 2026-04-19 04:05 | 44.88011 | -93.21149 | 829 ft | 2 kts | 113° |
| 2026-04-19 04:06 | 44.87974 | -93.21056 | 834 ft | 12 kts | 121° |
| 2026-04-19 04:06 | 44.87935 | -93.20966 | 835 ft | 9 kts | 122° |
| 2026-04-19 04:06 | 44.87907 | -93.20903 | 836 ft | 6 kts | 121° |
| 2026-04-19 04:06 | 44.87858 | -93.20787 | 832 ft | 21 kts | 120° |
| 2026-04-19 04:07 | 44.87780 | -93.20634 | 833 ft | 15 kts | 166° |
| 2026-04-19 04:07 | 44.87742 | -93.20646 | 832 ft | 1 kts | 201° |
| 2026-04-19 04:07 | 44.87690 | -93.20577 | 830 ft | 21 kts | 137° |
| 2026-04-19 04:07 | 44.87606 | -93.20393 | 826 ft | 23 kts | 119° |
| 2026-04-19 04:08 | 44.87515 | -93.20193 | 825 ft | 25 kts | 124° |
| 2026-04-19 04:08 | 44.87450 | -93.20085 | 827 ft | 6 kts | 157° |
| 2026-04-19 04:08 | 44.87386 | -93.20133 | 826 ft | 18 kts | 240° |
| 2026-04-19 04:08 | 44.87430 | -93.20301 | 820 ft | 21 kts | 302° |
| 2026-04-19 04:09 | 44.87586 | -93.20668 | 827 ft | 82 kts | 301° |
| 2026-04-19 04:09 | 44.88019 | -93.21672 | 827 ft | 155 kts | 301° |
| 2026-04-19 04:09 | 44.88648 | -93.23115 | 1178 ft | 184 kts | 302° |
| 2026-04-19 04:09 | 44.89377 | -93.24692 | 1861 ft | 196 kts | 303° |
| 2026-04-19 04:10 | 44.90171 | -93.26318 | 2409 ft | 207 kts | 305° |
| 2026-04-19 04:10 | 44.90997 | -93.28103 | 2792 ft | 229 kts | 300° |
| 2026-04-19 04:10 | 44.91814 | -93.30166 | 3189 ft | 252 kts | 298° |
| 2026-04-19 04:10 | 44.92673 | -93.32391 | 3892 ft | 261 kts | 298° |
| 2026-04-19 04:11 | 44.93558 | -93.34653 | 4740 ft | 265 kts | 298° |
| 2026-04-19 04:11 | 44.94599 | -93.36824 | 5573 ft | 270 kts | 315° |
| 2026-04-19 04:11 | 44.96175 | -93.38267 | 6376 ft | 274 kts | 341° |
| 2026-04-19 04:11 | 44.98067 | -93.38621 | 7183 ft | 278 kts | 2° |
| 2026-04-19 04:12 | 45.00011 | -93.38475 | 8006 ft | 281 kts | 3° |
| 2026-04-19 04:12 | 45.01976 | -93.38319 | 8799 ft | 284 kts | 3° |
| 2026-04-19 04:12 | 45.03964 | -93.38161 | 9575 ft | 288 kts | 3° |
| 2026-04-19 04:12 | 45.05975 | -93.37998 | 10270 ft | 295 kts | 3° |
| 2026-04-19 04:13 | 45.08107 | -93.37832 | 10498 ft | 318 kts | 2° |
| 2026-04-19 04:13 | 45.10389 | -93.37811 | 10787 ft | 336 kts | 353° |
| 2026-04-19 04:13 | 45.12690 | -93.38598 | 11397 ft | 343 kts | 338° |
| 2026-04-19 04:13 | 45.14545 | -93.39980 | 11983 ft | 346 kts | 324° |
| 2026-04-19 04:14 | 45.16273 | -93.42172 | 12647 ft | 349 kts | 310° |
| 2026-04-19 04:14 | 45.17617 | -93.45050 | 13316 ft | 352 kts | 298° |
| 2026-04-19 04:14 | 45.18805 | -93.48102 | 13973 ft | 355 kts | 298° |
| 2026-04-19 04:14 | 45.20004 | -93.51187 | 14609 ft | 359 kts | 298° |
| 2026-04-19 04:15 | 45.21218 | -93.54301 | 15230 ft | 362 kts | 298° |
| 2026-04-19 04:15 | 45.22442 | -93.57443 | 15839 ft | 365 kts | 298° |
| 2026-04-19 04:15 | 45.23675 | -93.60613 | 16425 ft | 369 kts | 298° |
| 2026-04-19 04:15 | 45.24917 | -93.63813 | 17000 ft | 372 kts | 298° |
| 2026-04-19 04:16 | 45.26172 | -93.67049 | 17563 ft | 375 kts | 298° |
| 2026-04-19 04:16 | 45.27433 | -93.70307 | 18119 ft | 378 kts | 298° |
| 2026-04-19 04:16 | 45.28705 | -93.73593 | 18665 ft | 381 kts | 298° |
| 2026-04-19 04:16 | 45.29990 | -93.76910 | 19211 ft | 384 kts | 298° |
| 2026-04-19 04:17 | 45.31284 | -93.80253 | 19730 ft | 387 kts | 298° |
| 2026-04-19 04:17 | 45.32586 | -93.83622 | 20265 ft | 391 kts | 298° |
| 2026-04-19 04:17 | 45.33899 | -93.87024 | 20779 ft | 394 kts | 298° |
| 2026-04-19 04:17 | 45.35218 | -93.90447 | 21284 ft | 397 kts | 298° |
| 2026-04-19 04:18 | 45.36548 | -93.93901 | 21772 ft | 400 kts | 298° |
| 2026-04-19 04:18 | 45.37886 | -93.97386 | 22248 ft | 403 kts | 298° |
| 2026-04-19 04:18 | 45.39230 | -94.00893 | 22714 ft | 405 kts | 298° |
| 2026-04-19 04:18 | 45.40583 | -94.04428 | 23154 ft | 408 kts | 298° |
| 2026-04-19 04:19 | 45.41941 | -94.07989 | 23580 ft | 411 kts | 298° |
| 2026-04-19 04:19 | 45.42846 | -94.10360 | 23857 ft | 413 kts | 298° |
| 2026-04-19 04:19 | 45.44221 | -94.13963 | 24265 ft | 415 kts | 298° |
| 2026-04-19 04:19 | 45.45604 | -94.17588 | 24657 ft | 418 kts | 298° |
| 2026-04-19 04:20 | 45.46995 | -94.21233 | 25034 ft | 420 kts | 298° |
| 2026-04-19 04:20 | 45.48395 | -94.24901 | 25396 ft | 422 kts | 298° |
| 2026-04-19 04:20 | 45.49802 | -94.28595 | 25745 ft | 425 kts | 298° |
| 2026-04-19 04:20 | 45.51210 | -94.32307 | 26097 ft | 427 kts | 298° |
| 2026-04-19 04:21 | 45.52628 | -94.36050 | 26435 ft | 429 kts | 298° |
| 2026-04-19 04:21 | 45.54046 | -94.39805 | 26767 ft | 432 kts | 298° |
| 2026-04-19 04:21 | 45.55469 | -94.43589 | 27087 ft | 434 kts | 298° |
| 2026-04-19 04:21 | 45.56879 | -94.47347 | 27400 ft | 436 kts | 298° |
| 2026-04-19 04:22 | 45.58345 | -94.51147 | 27707 ft | 438 kts | 302° |
| 2026-04-19 04:22 | 45.60109 | -94.54713 | 28005 ft | 440 kts | 307° |
| 2026-04-19 04:22 | 45.61945 | -94.58225 | 28303 ft | 442 kts | 307° |
| 2026-04-19 04:22 | 45.63786 | -94.61753 | 28581 ft | 444 kts | 306° |
| 2026-04-19 04:23 | 45.65635 | -94.65296 | 28854 ft | 446 kts | 306° |
| 2026-04-19 04:23 | 45.67492 | -94.68863 | 29120 ft | 448 kts | 306° |
| 2026-04-19 04:23 | 45.69352 | -94.72444 | 29376 ft | 450 kts | 306° |
| 2026-04-19 04:23 | 45.71219 | -94.76056 | 29625 ft | 451 kts | 306° |
| 2026-04-19 04:24 | 45.73081 | -94.79678 | 29863 ft | 453 kts | 306° |
| 2026-04-19 04:24 | 45.74953 | -94.83322 | 30095 ft | 455 kts | 306° |
| 2026-04-19 04:24 | 45.76829 | -94.86971 | 30317 ft | 456 kts | 306° |
| 2026-04-19 04:24 | 45.78714 | -94.90638 | 30534 ft | 458 kts | 306° |
| 2026-04-19 04:25 | 45.80609 | -94.94317 | 30744 ft | 459 kts | 306° |
| 2026-04-19 04:25 | 45.82506 | -94.98001 | 30980 ft | 459 kts | 306° |
| 2026-04-19 04:25 | 45.84398 | -95.01692 | 31270 ft | 459 kts | 306° |
| 2026-04-19 04:25 | 45.86286 | -95.05385 | 31551 ft | 458 kts | 306° |
| 2026-04-19 04:26 | 45.88144 | -95.09019 | 31821 ft | 457 kts | 306° |
| 2026-04-19 04:26 | 45.90024 | -95.12701 | 32094 ft | 457 kts | 306° |
| 2026-04-19 04:26 | 45.91924 | -95.16430 | 32368 ft | 456 kts | 306° |
| 2026-04-19 04:26 | 45.93768 | -95.20055 | 32637 ft | 456 kts | 306° |
| 2026-04-19 04:27 | 45.95660 | -95.23775 | 32897 ft | 455 kts | 306° |
| 2026-04-19 04:27 | 45.97528 | -95.27455 | 33150 ft | 455 kts | 306° |
| 2026-04-19 04:27 | 45.99366 | -95.31082 | 33391 ft | 455 kts | 306° |
| 2026-04-19 04:27 | 46.01224 | -95.34751 | 33493 ft | 452 kts | 306° |
| 2026-04-19 04:28 | 46.04899 | -95.42010 | 33509 ft | 448 kts | 306° |
| 2026-04-19 04:28 | 46.08555 | -95.49262 | 33508 ft | 446 kts | 306° |
| 2026-04-19 04:29 | 46.12190 | -95.56516 | 33509 ft | 446 kts | 306° |
| 2026-04-19 04:29 | 46.15825 | -95.63772 | 33510 ft | 446 kts | 306° |
| 2026-04-19 04:30 | 46.19467 | -95.71019 | 33510 ft | 446 kts | 306° |
| 2026-04-19 04:30 | 46.23105 | -95.78276 | 33507 ft | 446 kts | 306° |
| 2026-04-19 04:31 | 46.26721 | -95.85555 | 33506 ft | 446 kts | 305° |
| 2026-04-19 04:31 | 46.30327 | -95.92838 | 33504 ft | 445 kts | 305° |
| 2026-04-19 04:32 | 46.33915 | -96.00085 | 33502 ft | 445 kts | 305° |
| 2026-04-19 04:32 | 46.37517 | -96.07386 | 33501 ft | 445 kts | 305° |
| 2026-04-19 04:33 | 46.41117 | -96.14686 | 33501 ft | 445 kts | 305° |
| 2026-04-19 04:33 | 46.44715 | -96.22005 | 33501 ft | 445 kts | 305° |
| 2026-04-19 04:34 | 46.48302 | -96.29330 | 33502 ft | 445 kts | 305° |
| 2026-04-19 04:34 | 46.51892 | -96.36661 | 33502 ft | 445 kts | 305° |
| 2026-04-19 04:35 | 46.55474 | -96.44004 | 33504 ft | 445 kts | 305° |
| 2026-04-19 04:35 | 46.59048 | -96.51351 | 33508 ft | 445 kts | 305° |
| 2026-04-19 04:36 | 46.62621 | -96.58718 | 33508 ft | 446 kts | 305° |
| 2026-04-19 04:36 | 46.66237 | -96.66206 | 33509 ft | 458 kts | 305° |
| 2026-04-19 04:37 | 46.69874 | -96.73761 | 33507 ft | 447 kts | 305° |
| 2026-04-19 04:37 | 46.73296 | -96.81235 | 33509 ft | 441 kts | 297° |
| 2026-04-19 04:38 | 46.75247 | -96.89671 | 33509 ft | 440 kts | 278° |
| 2026-04-19 04:38 | 46.75584 | -96.98577 | 33509 ft | 440 kts | 271° |
| 2026-04-19 04:39 | 46.75745 | -97.07509 | 33508 ft | 441 kts | 271° |
| 2026-04-19 04:39 | 46.75893 | -97.16400 | 33506 ft | 430 kts | 271° |
| 2026-04-19 04:40 | 46.75959 | -97.20626 | 33507 ft | 415 kts | 271° |
| 2026-04-19 04:40 | 46.76022 | -97.24801 | 33509 ft | 409 kts | 271° |
| 2026-04-19 04:40 | 46.76142 | -97.33126 | 33509 ft | 411 kts | 271° |
| 2026-04-19 04:41 | 46.76261 | -97.41465 | 33509 ft | 411 kts | 271° |
| 2026-04-19 04:41 | 46.76376 | -97.49819 | 33509 ft | 412 kts | 271° |
| 2026-04-19 04:42 | 46.76494 | -97.58175 | 33507 ft | 411 kts | 274° |
| 2026-04-19 04:42 | 46.77069 | -97.62241 | 33505 ft | 410 kts | 290° |
| 2026-04-19 04:42 | 46.78132 | -97.66098 | 33504 ft | 410 kts | 293° |
| 2026-04-19 04:43 | 46.80376 | -97.73748 | 33495 ft | 410 kts | 293° |
| 2026-04-19 04:43 | 46.82620 | -97.81350 | 33491 ft | 410 kts | 293° |
| 2026-04-19 04:44 | 46.84887 | -97.89008 | 33490 ft | 411 kts | 293° |
| 2026-04-19 04:44 | 46.87159 | -97.96664 | 33489 ft | 411 kts | 293° |
| 2026-04-19 04:45 | 46.89438 | -98.04324 | 33489 ft | 411 kts | 293° |
| 2026-04-19 04:45 | 46.91722 | -98.11982 | 33488 ft | 411 kts | 293° |
| 2026-04-19 04:46 | 46.93361 | -98.19968 | 33486 ft | 410 kts | 283° |
| 2026-04-19 04:46 | 46.93765 | -98.28205 | 33482 ft | 409 kts | 259° |
| 2026-04-19 04:47 | 46.92714 | -98.36402 | 33034 ft | 415 kts | 259° |
| 2026-04-19 04:47 | 46.92147 | -98.40649 | 32196 ft | 431 kts | 259° |
| 2026-04-19 04:47 | 46.91574 | -98.44944 | 31652 ft | 436 kts | 259° |
| 2026-04-19 04:48 | 46.90995 | -98.49292 | 31080 ft | 434 kts | 259° |
| 2026-04-19 04:48 | 46.90421 | -98.53610 | 30511 ft | 432 kts | 259° |
| 2026-04-19 04:48 | 46.89856 | -98.57852 | 29964 ft | 429 kts | 259° |
| 2026-04-19 04:48 | 46.89283 | -98.62113 | 29408 ft | 426 kts | 259° |
| 2026-04-19 04:49 | 46.88714 | -98.66330 | 28872 ft | 419 kts | 259° |
| 2026-04-19 04:49 | 46.88160 | -98.70432 | 28622 ft | 400 kts | 259° |
| 2026-04-19 04:49 | 46.87631 | -98.74350 | 28174 ft | 386 kts | 259° |
| 2026-04-19 04:49 | 46.87116 | -98.78160 | 27536 ft | 379 kts | 259° |
| 2026-04-19 04:50 | 46.86606 | -98.81917 | 26884 ft | 375 kts | 259° |
| 2026-04-19 04:50 | 46.86100 | -98.85660 | 26408 ft | 374 kts | 259° |
| 2026-04-19 04:50 | 46.85594 | -98.89376 | 25954 ft | 372 kts | 259° |
| 2026-04-19 04:50 | 46.85086 | -98.93079 | 25506 ft | 370 kts | 258° |
| 2026-04-19 04:51 | 46.84580 | -98.96754 | 25063 ft | 368 kts | 258° |
| 2026-04-19 04:51 | 46.84082 | -99.00392 | 24626 ft | 363 kts | 259° |
| 2026-04-19 04:51 | 46.83591 | -99.03998 | 24200 ft | 361 kts | 259° |
| 2026-04-19 04:51 | 46.83099 | -99.07573 | 23777 ft | 358 kts | 258° |
| 2026-04-19 04:52 | 46.82608 | -99.11130 | 23351 ft | 356 kts | 258° |
| 2026-04-19 04:52 | 46.82118 | -99.14663 | 22929 ft | 355 kts | 258° |
| 2026-04-19 04:52 | 46.81630 | -99.18176 | 22567 ft | 350 kts | 258° |
| 2026-04-19 04:52 | 46.81156 | -99.21590 | 22247 ft | 338 kts | 258° |
| 2026-04-19 04:53 | 46.80688 | -99.24948 | 21687 ft | 339 kts | 258° |
| 2026-04-19 04:53 | 46.80223 | -99.28277 | 21266 ft | 338 kts | 258° |
| 2026-04-19 04:53 | 46.79756 | -99.31611 | 20994 ft | 332 kts | 258° |
| 2026-04-19 04:53 | 46.79288 | -99.34938 | 20507 ft | 334 kts | 258° |
| 2026-04-19 04:54 | 46.78826 | -99.38217 | 20274 ft | 327 kts | 258° |
| 2026-04-19 04:54 | 46.78371 | -99.41448 | 19939 ft | 324 kts | 258° |
| 2026-04-19 04:54 | 46.77921 | -99.44649 | 19580 ft | 321 kts | 258° |
| 2026-04-19 04:54 | 46.77469 | -99.47831 | 19221 ft | 320 kts | 258° |
| 2026-04-19 04:55 | 46.77017 | -99.50994 | 18862 ft | 318 kts | 258° |
| 2026-04-19 04:55 | 46.76569 | -99.54139 | 18507 ft | 316 kts | 258° |
| 2026-04-19 04:55 | 46.76124 | -99.57268 | 18154 ft | 314 kts | 258° |
| 2026-04-19 04:55 | 46.75680 | -99.60380 | 17810 ft | 312 kts | 258° |
| 2026-04-19 04:56 | 46.75234 | -99.63476 | 17466 ft | 311 kts | 258° |
| 2026-04-19 04:56 | 46.74792 | -99.66552 | 17125 ft | 309 kts | 258° |
| 2026-04-19 04:56 | 46.74324 | -99.69605 | 16787 ft | 307 kts | 252° |
| 2026-04-19 04:56 | 46.73296 | -99.72292 | 16470 ft | 305 kts | 229° |
| 2026-04-19 04:57 | 46.71838 | -99.74534 | 16108 ft | 304 kts | 225° |
| 2026-04-19 04:57 | 46.70357 | -99.76667 | 15782 ft | 303 kts | 225° |
| 2026-04-19 04:57 | 46.68852 | -99.78819 | 15457 ft | 302 kts | 225° |
| 2026-04-19 04:57 | 46.67359 | -99.80952 | 15129 ft | 300 kts | 225° |
| 2026-04-19 04:58 | 46.65982 | -99.83221 | 14814 ft | 298 kts | 239° |
| 2026-04-19 04:58 | 46.65226 | -99.85997 | 14498 ft | 296 kts | 261° |
| 2026-04-19 04:58 | 46.65013 | -99.89015 | 13773 ft | 308 kts | 265° |
| 2026-04-19 04:58 | 46.64857 | -99.92206 | 12972 ft | 322 kts | 266° |
| 2026-04-19 04:59 | 46.64713 | -99.95473 | 12460 ft | 324 kts | 266° |
| 2026-04-19 04:59 | 46.64575 | -99.98742 | 12032 ft | 323 kts | 266° |
| 2026-04-19 04:59 | 46.64435 | -100.01989 | 11624 ft | 321 kts | 266° |
| 2026-04-19 04:59 | 46.64288 | -100.05217 | 11217 ft | 319 kts | 266° |
| 2026-04-19 05:00 | 46.64135 | -100.08429 | 10805 ft | 317 kts | 266° |
| 2026-04-19 05:00 | 46.63980 | -100.11621 | 10393 ft | 315 kts | 266° |
| 2026-04-19 05:00 | 46.63828 | -100.14745 | 10194 ft | 300 kts | 266° |
| 2026-04-19 05:00 | 46.63683 | -100.17707 | 9772 ft | 289 kts | 266° |
| 2026-04-19 05:01 | 46.63543 | -100.20596 | 9189 ft | 284 kts | 266° |
| 2026-04-19 05:01 | 46.63403 | -100.23448 | 8567 ft | 281 kts | 266° |
| 2026-04-19 05:01 | 46.63264 | -100.26269 | 7933 ft | 279 kts | 266° |
| 2026-04-19 05:01 | 46.63124 | -100.29072 | 7289 ft | 276 kts | 266° |
| 2026-04-19 05:02 | 46.62984 | -100.31839 | 6647 ft | 273 kts | 266° |
| 2026-04-19 05:02 | 46.62844 | -100.34585 | 6000 ft | 271 kts | 265° |
| 2026-04-19 05:02 | 46.62704 | -100.37305 | 5355 ft | 268 kts | 265° |
| 2026-04-19 05:02 | 46.62570 | -100.39923 | 5138 ft | 249 kts | 266° |
| 2026-04-19 05:03 | 46.62446 | -100.42343 | 4880 ft | 234 kts | 265° |
| 2026-04-19 05:03 | 46.62326 | -100.44681 | 4411 ft | 230 kts | 266° |
| 2026-04-19 05:03 | 46.62208 | -100.46983 | 3959 ft | 226 kts | 265° |
| 2026-04-19 05:03 | 46.62091 | -100.49255 | 3881 ft | 227 kts | 265° |
| 2026-04-19 05:04 | 46.61977 | -100.51542 | 3882 ft | 224 kts | 268° |
| 2026-04-19 05:04 | 46.62184 | -100.53703 | 3875 ft | 211 kts | 289° |
| 2026-04-19 05:04 | 46.62869 | -100.55524 | 3908 ft | 198 kts | 309° |
| 2026-04-19 05:04 | 46.63795 | -100.56845 | 3885 ft | 175 kts | 317° |
| 2026-04-19 05:05 | 46.64653 | -100.57975 | 3872 ft | 160 kts | 317° |
| 2026-04-19 05:05 | 46.65453 | -100.59031 | 3870 ft | 153 kts | 317° |
| 2026-04-19 05:05 | 46.66234 | -100.60061 | 3885 ft | 150 kts | 317° |
| 2026-04-19 05:05 | 46.67004 | -100.61079 | 3886 ft | 149 kts | 317° |
| 2026-04-19 05:06 | 46.67772 | -100.62094 | 3866 ft | 149 kts | 317° |
| 2026-04-19 05:06 | 46.68290 | -100.62778 | 3792 ft | 149 kts | 317° |
| 2026-04-19 05:06 | 46.69301 | -100.64116 | 3566 ft | 148 kts | 317° |
| 2026-04-19 05:06 | 46.69815 | -100.64796 | 3450 ft | 148 kts | 317° |
| 2026-04-19 05:07 | 46.70573 | -100.65799 | 3258 ft | 147 kts | 317° |
| 2026-04-19 05:07 | 46.71320 | -100.66788 | 3067 ft | 147 kts | 317° |
| 2026-04-19 05:07 | 46.72083 | -100.67800 | 2873 ft | 146 kts | 317° |
| 2026-04-19 05:07 | 46.72825 | -100.68782 | 2682 ft | 146 kts | 317° |
| 2026-04-19 05:08 | 46.73572 | -100.69773 | 2490 ft | 145 kts | 317° |
| 2026-04-19 05:08 | 46.75066 | -100.71754 | 2103 ft | 145 kts | 317° |
| 2026-04-19 05:08 | 46.75805 | -100.72745 | 1942 ft | 143 kts | 317° |
| 2026-04-19 05:09 | 46.76560 | -100.73745 | 1817 ft | 147 kts | 317° |
| 2026-04-19 05:09 | 46.77309 | -100.74729 | 1677 ft | 139 kts | 317° |
| 2026-04-19 05:09 | 46.77933 | -100.75565 | 1662 ft | 98 kts | 317° |
| 2026-04-19 05:09 | 46.78226 | -100.75957 | 1670 ft | 24 kts | 317° |
| 2026-04-19 05:10 | 46.78260 | -100.76119 | 1664 ft | 16 kts | 226° |
| 2026-04-19 05:10 | 46.78211 | -100.76198 | 1658 ft | 0 kts | 230° |
| 2026-04-19 05:10 | 46.78206 | -100.76208 | 1668 ft | 1 kts | 231° |
| 2026-04-19 05:10 | 46.78176 | -100.76232 | 1658 ft | 8 kts | 183° |
| 2026-04-19 05:11 | 46.78133 | -100.76208 | 1668 ft | 5 kts | 145° |
| 2026-04-19 05:11 | 46.78080 | -100.76139 | 1665 ft | 17 kts | 137° |
| 2026-04-19 05:11 | 46.77988 | -100.76016 | 1669 ft | 19 kts | 138° |
| 2026-04-19 05:11 | 46.77891 | -100.75888 | 1673 ft | 19 kts | 138° |
| 2026-04-19 05:12 | 46.77819 | -100.75787 | 1665 ft | 9 kts | 137° |
| 2026-04-19 05:12 | 46.77774 | -100.75732 | 1672 ft | 7 kts | 140° |
| 2026-04-19 05:12 | 46.77739 | -100.75690 | 1668 ft | 6 kts | 144° |